Flight Track Log - Related Links

Times and Time Zones

All times are in EDT time to prevent confusion due to time zone crossing. See the N691SP flight status page for this flight to view local times or setup timezone preferences in your user account.

Time Position Orientation Groundspeed Altitude Reporting Facility
EDT Latitude Longitude Course Direction KTS MPH feet Rate Location/Type
Tue 03:02:02 PM 39.5747 -84.2311 293° West 69 79 1,600  Level Indianapolis Center
Tue 03:03:21 PM 39.5847 -84.2622 293° West 108 124 2,400 600 Climbing Indianapolis Center
Tue 03:04:02 PM 39.5950 -84.2786 309° West 62 71 2,800 627 Climbing Indianapolis Center
Tue 03:04:28 PM 39.5950 -84.2908 270° West 75 86 3,100 581 Climbing Indianapolis Center
Tue 03:05:04 PM 39.5961 -84.3047 276° West 71 82 3,400 492 Climbing Indianapolis Center
Tue 03:05:29 PM 39.5992 -84.3183 286° West 75 86 3,600 581 Climbing Indianapolis Center
Tue 03:06:06 PM 39.6008 -84.3322 279° West 74 85 4,000 689 Climbing Indianapolis Center
Tue 03:06:30 PM 39.5994 -84.3428 260° West 64 74 4,300 581 Climbing Indianapolis Center
Tue 03:07:08 PM 39.6017 -84.3528 286° West 67 77 4,600 436 Climbing Indianapolis Center
Tue 03:07:25 PM 39.6022 -84.3594 276° West 47 54 4,700 381 Climbing Indianapolis Center
Tue 03:08:11 PM 39.6050 -84.3706 288° West 55 63 5,000 590 Climbing Indianapolis Center
Tue 03:08:26 PM 39.6047 -84.3786 267° West 55 63 5,300 484 Climbing Indianapolis Center
Tue 03:09:13 PM 39.6092 -84.3911 295° West 56 64 5,500 448 Climbing Indianapolis Center
Tue 03:09:33 PM 39.6133 -84.4017 297° West 60 69 5,800 290 Climbing Indianapolis Center
Tue 03:10:15 PM 39.6183 -84.4119 302° West 57 66 5,800 197 Level Indianapolis Center
Tue 03:10:34 PM 39.6247 -84.4194 318° Northwest 66 76 6,000 194 Climbing Indianapolis Center
Tue 03:11:17 PM 39.6303 -84.4358 294° West 65 75 6,000  Level Indianapolis Center
Tue 03:12:19 PM 39.6397 -84.4656 292° West 78 90 6,000 -76 Level Indianapolis Center
Tue 03:12:36 PM 39.6411 -84.4731 284° West 85 98 5,900 -97 Descending Indianapolis Center
Tue 03:13:21 PM 39.6472 -84.4936 291° West 82 94 5,900  Level Indianapolis Center
Tue 03:13:37 PM 39.6494 -84.5014 290° West 81 93 5,900  Level Indianapolis Center
Tue 03:14:23 PM 39.6583 -84.5206 301° West 82 94 5,900  Level Indianapolis Center
Tue 03:15:25 PM 39.6708 -84.5447 304° West 81 93 5,900  Level Indianapolis Center
Tue 03:15:44 PM 39.6719 -84.5586 276° West 78 90 5,900  Level Indianapolis Center
Tue 03:16:27 PM 39.6739 -84.5739 279° West 81 93 5,900  Level Indianapolis Center
Tue 03:16:45 PM 39.6739 -84.5861 270° West 80 92 5,900 -97 Level Indianapolis Center
Tue 03:17:29 PM 39.6786 -84.6014 292° West 79 91 5,800 -57 Descending Indianapolis Center
Tue 03:18:31 PM 39.6911 -84.6319 298° West 79 91 5,800 97 Level Indianapolis Center
Tue 03:19:33 PM 39.7028 -84.6556 303° West 78 90 6,000 48 Climbing Indianapolis Center
Tue 03:20:35 PM 39.7097 -84.6828 288° West 78 90 5,900 -48 Descending Indianapolis Center
Tue 03:21:37 PM 39.7147 -84.7094 284° West 77 89 5,900  Level Indianapolis Center
Tue 03:22:45 PM 39.7261 -84.7400 296° West 80 92 5,900 48 Level Indianapolis Center
Tue 03:23:41 PM 39.7350 -84.7597 300° West 77 89 6,000  Climbing Indianapolis Center
Tue 03:24:47 PM 39.7425 -84.7939 286° West 76 87 5,900 -48 Descending Indianapolis Center
Tue 03:25:45 PM 39.7486 -84.8181 288° West 78 90 5,900  Level Indianapolis Center
Tue 03:26:54 PM 39.7589 -84.8478 294° West 80 92 5,900  Level Indianapolis Center
Tue 03:27:50 PM 39.7783 -84.8594 335° Northwest 85 98 5,900 51 Level Indianapolis Center
Tue 03:28:52 PM 39.7917 -84.8833 306° West 85 98 6,000 48 Climbing Indianapolis Center
Tue 03:29:54 PM 39.8139 -84.9006 329° Northwest 84 97 6,000 -48 Level Indianapolis Center
Tue 03:30:56 PM 39.8314 -84.9211 318° Northwest 86 99 5,900 -290 Descending Indianapolis Center
Tue 03:31:58 PM 39.8483 -84.9461 311° West 88 101 5,400 -532 Descending Indianapolis Center
Tue 03:33:00 PM 39.8722 -84.9667 327° Northwest 93 107 4,800 -718 Descending Indianapolis Center
Tue 03:33:55 PM 39.8975 -84.9956 319° Northwest 108 124 4,000 -525 Descending Indianapolis Center
Tue 03:36:03 PM 39.9428 -85.0539 315° West 108 124 3,200 -328 Descending Indianapolis Center
Tue 03:36:58 PM 39.9544 -85.0881 294° West 117 135 3,000 -103 Descending Indianapolis Center
Tue 03:37:59 PM 39.9775 -85.1133 320° Northwest 110 127 3,000  Level Indianapolis Center
Tue 03:38:53 PM 40.0033 -85.1308 333° Northwest 114 131 3,000  Level Indianapolis Center
Tue 03:40:00 PM 40.0367 -85.1575 329° Northwest 116 133 3,000  Level Indianapolis Center
Tue 03:40:49 PM 40.0586 -85.1689 338° Northwest 119 137 3,000 -55 Level Indianapolis Center
Tue 03:41:50 PM 40.0836 -85.1944 322° Northwest 113 130 2,900  Descending Indianapolis Center
Tue 03:42:51 PM 40.1061 -85.2250 314° West 109 125 3,000  Climbing Indianapolis Center
Tue 03:43:52 PM 40.1289 -85.2531 317° Northwest 110 127 2,900 -49 Descending Indianapolis Center
Tue 03:44:53 PM 40.1517 -85.2811 317° Northwest 108 124 2,900 -47 Level Indianapolis Center
Tue 03:46:00 PM 40.1700 -85.3111 309° West 106 122 2,800 -90 Descending Indianapolis Center
Tue 03:48:00 PM 40.2041 -85.3541 323° Northwest  Level FlightAware Approximate
Tue 03:55:00 PM 40.2333 -85.3833 323° Northwest  Level FlightAware Approximate
Tue 03:56:00 PM 40.2425 -85.3958 323° Northwest  Level Estimated
Tue 03:57:00 PM 40.2425 -85.3958 323° Northwest  Level Estimated

Login

Don't have an account? Register now (free) for customized features, flight alerts, and more!